sensor_id;sensor_type;location;lat;lon;timestamp;temperature;humidity
15705;DHT22;7952;48.396;12.806;2022-10-04T00:13:22;11.30;60.40
15705;DHT22;7952;48.396;12.806;2022-10-04T00:51:45;11.00;60.40
15705;DHT22;7952;48.396;12.806;2022-10-04T00:55:26;11.00;60.50
15705;DHT22;7952;48.396;12.806;2022-10-04T00:57:47;11.00;60.50
15705;DHT22;7952;48.396;12.806;2022-10-04T01:00:18;10.90;60.40
15705;DHT22;7952;48.396;12.806;2022-10-04T01:02:53;10.90;60.40
15705;DHT22;7952;48.396;12.806;2022-10-04T01:05:24;10.90;60.40
15705;DHT22;7952;48.396;12.806;2022-10-04T01:11:40;10.90;60.50
15705;DHT22;7952;48.396;12.806;2022-10-04T01:14:13;10.80;60.40
15705;DHT22;7952;48.396;12.806;2022-10-04T01:16:43;10.80;60.40
15705;DHT22;7952;48.396;12.806;2022-10-04T01:19:35;10.80;60.40
15705;DHT22;7952;48.396;12.806;2022-10-04T01:22:13;10.70;60.30
15705;DHT22;7952;48.396;12.806;2022-10-04T01:24:43;10.70;60.30
15705;DHT22;7952;48.396;12.806;2022-10-04T01:29:53;10.60;60.30
15705;DHT22;7952;48.396;12.806;2022-10-04T01:32:19;10.60;60.40
15705;DHT22;7952;48.396;12.806;2022-10-04T01:34:48;10.60;60.40
15705;DHT22;7952;48.396;12.806;2022-10-04T01:37:13;10.50;60.40
15705;DHT22;7952;48.396;12.806;2022-10-04T01:39:40;10.50;60.40
15705;DHT22;7952;48.396;12.806;2022-10-04T01:42:10;10.50;60.40
15705;DHT22;7952;48.396;12.806;2022-10-04T01:44:50;10.50;60.50
15705;DHT22;7952;48.396;12.806;2022-10-04T01:47:28;10.40;60.40
15705;DHT22;7952;48.396;12.806;2022-10-04T01:49:56;10.40;60.40
15705;DHT22;7952;48.396;12.806;2022-10-04T01:52:41;10.40;60.40
15705;DHT22;7952;48.396;12.806;2022-10-04T01:55:14;10.40;60.50
15705;DHT22;7952;48.396;12.806;2022-10-04T01:57:45;10.30;60.40
15705;DHT22;7952;48.396;12.806;2022-10-04T02:00:12;10.30;60.40
15705;DHT22;7952;48.396;12.806;2022-10-04T02:02:44;10.30;60.50
15705;DHT22;7952;48.396;12.806;2022-10-04T02:05:17;10.30;60.50
15705;DHT22;7952;48.396;12.806;2022-10-04T02:07:45;10.20;60.40
15705;DHT22;7952;48.396;12.806;2022-10-04T02:10:17;10.20;60.40
15705;DHT22;7952;48.396;12.806;2022-10-04T02:12:48;10.20;60.40
15705;DHT22;7952;48.396;12.806;2022-10-04T02:15:17;10.20;60.40
15705;DHT22;7952;48.396;12.806;2022-10-04T02:17:44;10.20;60.40
15705;DHT22;7952;48.396;12.806;2022-10-04T02:20:19;10.20;61.00
15705;DHT22;7952;48.396;12.806;2022-10-04T02:22:49;10.20;60.40
15705;DHT22;7952;48.396;12.806;2022-10-04T02:25:18;10.20;60.40
15705;DHT22;7952;48.396;12.806;2022-10-04T02:27:44;10.20;60.40
15705;DHT22;7952;48.396;12.806;2022-10-04T02:30:11;10.20;60.50
15705;DHT22;7952;48.396;12.806;2022-10-04T02:32:38;10.20;60.50
15705;DHT22;7952;48.396;12.806;2022-10-04T02:35:27;10.20;60.50
15705;DHT22;7952;48.396;12.806;2022-10-04T02:38:12;10.20;60.50
15705;DHT22;7952;48.396;12.806;2022-10-04T02:43:39;10.20;60.40
15705;DHT22;7952;48.396;12.806;2022-10-04T02:49:37;10.10;60.40
15705;DHT22;7952;48.396;12.806;2022-10-04T02:52:13;10.10;60.40
15705;DHT22;7952;48.396;12.806;2022-10-04T02:54:45;10.10;60.40
15705;DHT22;7952;48.396;12.806;2022-10-04T02:57:21;10.10;61.00
15705;DHT22;7952;48.396;12.806;2022-10-04T02:59:48;10.10;60.40
15705;DHT22;7952;48.396;12.806;2022-10-04T03:02:25;10.10;60.40
15705;DHT22;7952;48.396;12.806;2022-10-04T03:04:53;10.10;60.50
15705;DHT22;7952;48.396;12.806;2022-10-04T03:07:20;10.00;61.00
15705;DHT22;7952;48.396;12.806;2022-10-04T03:09:47;10.00;60.40
15705;DHT22;7952;48.396;12.806;2022-10-04T03:12:13;10.00;60.40
15705;DHT22;7952;48.396;12.806;2022-10-04T03:14:39;10.00;61.00
15705;DHT22;7952;48.396;12.806;2022-10-04T03:17:05;10.00;60.30
15705;DHT22;7952;48.396;12.806;2022-10-04T03:19:32;10.00;60.30
15705;DHT22;7952;48.396;12.806;2022-10-04T03:22:03;9.90;61.30
15705;DHT22;7952;48.396;12.806;2022-10-04T03:24:35;9.90;61.30
15705;DHT22;7952;48.396;12.806;2022-10-04T03:27:04;9.90;61.40
15705;DHT22;7952;48.396;12.806;2022-10-04T03:29:31;9.90;61.40
15705;DHT22;7952;48.396;12.806;2022-10-04T03:32:00;9.90;61.40
15705;DHT22;7952;48.396;12.806;2022-10-04T03:34:33;9.90;61.40
15705;DHT22;7952;48.396;12.806;2022-10-04T03:37:01;9.90;61.40
15705;DHT22;7952;48.396;12.806;2022-10-04T03:39:31;9.90;61.40
15705;DHT22;7952;48.396;12.806;2022-10-04T03:42:03;9.80;61.30
15705;DHT22;7952;48.396;12.806;2022-10-04T03:44:31;9.90;61.40
15705;DHT22;7952;48.396;12.806;2022-10-04T03:46:58;9.80;61.30
15705;DHT22;7952;48.396;12.806;2022-10-04T03:49:35;9.80;61.30
15705;DHT22;7952;48.396;12.806;2022-10-04T03:52:02;9.80;61.30
15705;DHT22;7952;48.396;12.806;2022-10-04T03:54:29;9.80;61.30
15705;DHT22;7952;48.396;12.806;2022-10-04T03:56:56;9.80;61.30
15705;DHT22;7952;48.396;12.806;2022-10-04T03:59:24;9.70;61.30
15705;DHT22;7952;48.396;12.806;2022-10-04T04:02:16;9.70;61.30
15705;DHT22;7952;48.396;12.806;2022-10-04T04:07:33;9.70;61.30
15705;DHT22;7952;48.396;12.806;2022-10-04T04:10:14;9.70;61.30
15705;DHT22;7952;48.396;12.806;2022-10-04T04:12:45;9.70;61.40
15705;DHT22;7952;48.396;12.806;2022-10-04T04:15:14;9.70;61.40
15705;DHT22;7952;48.396;12.806;2022-10-04T04:20:20;9.60;61.30
15705;DHT22;7952;48.396;12.806;2022-10-04T04:22:55;9.60;61.30
15705;DHT22;7952;48.396;12.806;2022-10-04T04:25:23;9.60;61.20
15705;DHT22;7952;48.396;12.806;2022-10-04T04:27:53;9.60;61.30
15705;DHT22;7952;48.396;12.806;2022-10-04T04:30:22;9.50;61.30
15705;DHT22;7952;48.396;12.806;2022-10-04T04:32:51;9.50;61.30
15705;DHT22;7952;48.396;12.806;2022-10-04T04:35:36;9.40;61.30
15705;DHT22;7952;48.396;12.806;2022-10-04T04:40:29;9.40;60.80
15705;DHT22;7952;48.396;12.806;2022-10-04T04:42:56;9.40;61.40
15705;DHT22;7952;48.396;12.806;2022-10-04T04:45:25;9.40;61.40
15705;DHT22;7952;48.396;12.806;2022-10-04T04:47:54;9.40;61.40
15705;DHT22;7952;48.396;12.806;2022-10-04T04:50:33;9.40;61.50
15705;DHT22;7952;48.396;12.806;2022-10-04T04:53:15;9.40;61.40
15705;DHT22;7952;48.396;12.806;2022-10-04T04:55:49;9.40;61.40
15705;DHT22;7952;48.396;12.806;2022-10-04T04:58:19;9.40;61.40
15705;DHT22;7952;48.396;12.806;2022-10-04T05:00:58;9.40;61.30
15705;DHT22;7952;48.396;12.806;2022-10-04T05:03:24;9.40;61.30
15705;DHT22;7952;48.396;12.806;2022-10-04T05:05:50;9.40;61.30
15705;DHT22;7952;48.396;12.806;2022-10-04T05:08:26;9.40;61.30
15705;DHT22;7952;48.396;12.806;2022-10-04T05:16:10;9.40;61.40
15705;DHT22;7952;48.396;12.806;2022-10-04T05:18:36;9.40;61.40
15705;DHT22;7952;48.396;12.806;2022-10-04T05:21:29;9.40;61.40
15705;DHT22;7952;48.396;12.806;2022-10-04T05:23:54;9.50;61.40
15705;DHT22;7952;48.396;12.806;2022-10-04T05:26:29;9.50;61.30
15705;DHT22;7952;48.396;12.806;2022-10-04T05:29:16;9.50;61.30
15705;DHT22;7952;48.396;12.806;2022-10-04T05:31:56;9.50;61.40
15705;DHT22;7952;48.396;12.806;2022-10-04T05:34:26;9.40;61.30
15705;DHT22;7952;48.396;12.806;2022-10-04T05:38:00;9.50;61.50
15705;DHT22;7952;48.396;12.806;2022-10-04T05:40:15;9.50;61.50
15705;DHT22;7952;48.396;12.806;2022-10-04T05:42:48;9.50;61.40
15705;DHT22;7952;48.396;12.806;2022-10-04T05:45:19;9.50;61.30
15705;DHT22;7952;48.396;12.806;2022-10-04T05:47:50;9.50;61.40
15705;DHT22;7952;48.396;12.806;2022-10-04T05:58:32;9.70;61.50
15705;DHT22;7952;48.396;12.806;2022-10-04T06:04:07;9.80;61.40
15705;DHT22;7952;48.396;12.806;2022-10-04T06:06:55;9.80;61.40
15705;DHT22;7952;48.396;12.806;2022-10-04T06:20:50;10.30;60.40
15705;DHT22;7952;48.396;12.806;2022-10-04T06:23:20;10.40;60.30
15705;DHT22;7952;48.396;12.806;2022-10-04T06:25:57;10.50;60.30
15705;DHT22;7952;48.396;12.806;2022-10-04T06:28:29;10.50;60.20
15705;DHT22;7952;48.396;12.806;2022-10-04T07:03:26;11.80;60.50
15705;DHT22;7952;48.396;12.806;2022-10-04T07:06:04;12.00;60.50
15705;DHT22;7952;48.396;12.806;2022-10-04T07:08:44;12.10;60.50
15705;DHT22;7952;48.396;12.806;2022-10-04T07:11:26;12.20;60.50
15705;DHT22;7952;48.396;12.806;2022-10-04T07:16:45;12.50;60.40
15705;DHT22;7952;48.396;12.806;2022-10-04T07:19:41;12.60;60.40
15705;DHT22;7952;48.396;12.806;2022-10-04T07:22:40;12.90;61.20
15705;DHT22;7952;48.396;12.806;2022-10-04T07:28:42;14.10;62.40
15705;DHT22;7952;48.396;12.806;2022-10-04T07:48:57;16.20;60.60
15705;DHT22;7952;48.396;12.806;2022-10-04T08:15:50;18.30;61.60
15705;DHT22;7952;48.396;12.806;2022-10-04T17:53:44;14.70;57.10
15705;DHT22;7952;48.396;12.806;2022-10-04T18:00:18;14.50;57.10
15705;DHT22;7952;48.396;12.806;2022-10-04T19:34:44;13.10;57.30
15705;DHT22;7952;48.396;12.806;2022-10-04T19:46:25;12.90;57.30
15705;DHT22;7952;48.396;12.806;2022-10-04T19:48:53;12.90;57.40
15705;DHT22;7952;48.396;12.806;2022-10-04T19:51:35;12.90;57.50
15705;DHT22;7952;48.396;12.806;2022-10-04T19:54:41;12.80;57.40
15705;DHT22;7952;48.396;12.806;2022-10-04T19:57:13;12.80;57.50
15705;DHT22;7952;48.396;12.806;2022-10-04T20:02:54;12.70;57.50
15705;DHT22;7952;48.396;12.806;2022-10-04T20:05:21;12.70;57.50
15705;DHT22;7952;48.396;12.806;2022-10-04T20:07:58;12.60;57.50
15705;DHT22;7952;48.396;12.806;2022-10-04T20:13:36;12.50;57.60
15705;DHT22;7952;48.396;12.806;2022-10-04T20:16:02;12.50;57.50
15705;DHT22;7952;48.396;12.806;2022-10-04T20:26:07;12.40;57.60
15705;DHT22;7952;48.396;12.806;2022-10-04T20:31:04;12.40;57.60
15705;DHT22;7952;48.396;12.806;2022-10-04T20:33:43;12.30;57.50
15705;DHT22;7952;48.396;12.806;2022-10-04T20:38:57;12.30;57.50
15705;DHT22;7952;48.396;12.806;2022-10-04T20:46:53;12.20;58.10
15705;DHT22;7952;48.396;12.806;2022-10-04T20:49:29;12.20;57.50
15705;DHT22;7952;48.396;12.806;2022-10-04T20:51:55;12.30;57.50
15705;DHT22;7952;48.396;12.806;2022-10-04T20:54:21;12.20;57.40
15705;DHT22;7952;48.396;12.806;2022-10-04T20:56:48;12.20;57.40
15705;DHT22;7952;48.396;12.806;2022-10-04T20:59:15;12.20;57.40
15705;DHT22;7952;48.396;12.806;2022-10-04T21:01:42;12.20;57.40
15705;DHT22;7952;48.396;12.806;2022-10-04T21:04:26;12.20;57.40
15705;DHT22;7952;48.396;12.806;2022-10-04T21:06:58;12.10;57.40
15705;DHT22;7952;48.396;12.806;2022-10-04T21:09:24;12.10;57.40
15705;DHT22;7952;48.396;12.806;2022-10-04T21:11:53;12.00;57.30
15705;DHT22;7952;48.396;12.806;2022-10-04T21:14:23;12.00;57.40
15705;DHT22;7952;48.396;12.806;2022-10-04T21:16:54;12.00;57.50
15705;DHT22;7952;48.396;12.806;2022-10-04T21:22:00;11.90;57.50
15705;DHT22;7952;48.396;12.806;2022-10-04T21:24:52;11.90;57.60
15705;DHT22;7952;48.396;12.806;2022-10-04T21:27:44;11.90;57.70
15705;DHT22;7952;48.396;12.806;2022-10-04T21:30:30;11.80;57.60
15705;DHT22;7952;48.396;12.806;2022-10-04T21:33:08;11.80;57.70
15705;DHT22;7952;48.396;12.806;2022-10-04T21:35:33;11.80;57.60
15705;DHT22;7952;48.396;12.806;2022-10-04T21:37:59;11.80;57.60
15705;DHT22;7952;48.396;12.806;2022-10-04T21:40:25;11.80;57.60
15705;DHT22;7952;48.396;12.806;2022-10-04T21:42:51;11.80;57.70
15705;DHT22;7952;48.396;12.806;2022-10-04T21:45:17;11.70;57.60
15705;DHT22;7952;48.396;12.806;2022-10-04T21:47:43;11.70;57.60
15705;DHT22;7952;48.396;12.806;2022-10-04T21:50:09;11.70;57.70
15705;DHT22;7952;48.396;12.806;2022-10-04T21:59:39;11.60;57.80
15705;DHT22;7952;48.396;12.806;2022-10-04T22:06:14;11.40;57.60
15705;DHT22;7952;48.396;12.806;2022-10-04T22:15:59;11.40;57.70
15705;DHT22;7952;48.396;12.806;2022-10-04T22:22:20;11.40;57.90
15705;DHT22;7952;48.396;12.806;2022-10-04T22:35:41;11.30;57.90
15705;DHT22;7952;48.396;12.806;2022-10-04T22:39:13;11.20;57.80
15705;DHT22;7952;48.396;12.806;2022-10-04T22:41:17;11.20;57.90
15705;DHT22;7952;48.396;12.806;2022-10-04T22:43:48;11.10;57.80
15705;DHT22;7952;48.396;12.806;2022-10-04T22:46:38;11.10;57.90
15705;DHT22;7952;48.396;12.806;2022-10-04T22:49:42;11.10;57.90
15705;DHT22;7952;48.396;12.806;2022-10-04T22:52:29;11.10;58.00
15705;DHT22;7952;48.396;12.806;2022-10-04T22:54:57;11.00;57.90
15705;DHT22;7952;48.396;12.806;2022-10-04T22:57:26;11.00;57.90
15705;DHT22;7952;48.396;12.806;2022-10-04T22:59:54;11.00;57.90
15705;DHT22;7952;48.396;12.806;2022-10-04T23:02:22;11.00;57.90
15705;DHT22;7952;48.396;12.806;2022-10-04T23:07:46;11.00;58.00
15705;DHT22;7952;48.396;12.806;2022-10-04T23:10:20;11.00;57.90
15705;DHT22;7952;48.396;12.806;2022-10-04T23:12:47;11.00;57.90
15705;DHT22;7952;48.396;12.806;2022-10-04T23:16:00;11.00;57.90
15705;DHT22;7952;48.396;12.806;2022-10-04T23:18:14;11.00;57.90
15705;DHT22;7952;48.396;12.806;2022-10-04T23:20:41;11.00;58.00
15705;DHT22;7952;48.396;12.806;2022-10-04T23:23:10;11.00;57.90
15705;DHT22;7952;48.396;12.806;2022-10-04T23:25:51;10.90;57.80
15705;DHT22;7952;48.396;12.806;2022-10-04T23:28:46;10.90;57.80
15705;DHT22;7952;48.396;12.806;2022-10-04T23:31:22;10.90;57.80
15705;DHT22;7952;48.396;12.806;2022-10-04T23:33:48;10.90;57.80
15705;DHT22;7952;48.396;12.806;2022-10-04T23:36:14;10.90;57.80
15705;DHT22;7952;48.396;12.806;2022-10-04T23:38:48;10.90;57.80
15705;DHT22;7952;48.396;12.806;2022-10-04T23:41:15;10.90;57.90
15705;DHT22;7952;48.396;12.806;2022-10-04T23:43:41;10.80;57.80
15705;DHT22;7952;48.396;12.806;2022-10-04T23:46:13;10.80;57.80
15705;DHT22;7952;48.396;12.806;2022-10-04T23:48:40;10.80;57.80
15705;DHT22;7952;48.396;12.806;2022-10-04T23:51:14;10.80;57.90
15705;DHT22;7952;48.396;12.806;2022-10-04T23:53:49;10.80;57.80
15705;DHT22;7952;48.396;12.806;2022-10-04T23:56:23;10.70;57.80
15705;DHT22;7952;48.396;12.806;2022-10-04T23:58:54;10.80;57.90
